Time;durP1;ratioP1;P1;durP2;ratioP2;P2;SDS_P1;SDS_P2;PMS_P1;PMS_P2;Temp;Humidity;BMP_temperature;BMP_pressure;BME280_temperature;BME280_humidity;BME280_pressure;Samples;Min_cycle;Max_cycle;Signal;HPM_P1;HPM_P2
2024/02/08 00:01:58;;;;;;;8.73;3.47;;;6.80;65.50;8.90;100233.00;;;;5074369;28;20205;-72
2024/02/08 00:04:25;;;;;;;8.93;3.40;;;6.70;66.20;8.80;100235.00;;;;5086770;28;20643;-73
2024/02/08 00:06:54;;;;;;;7.13;3.35;;;6.80;65.50;8.80;100239.00;;;;5076151;28;20314;-72
2024/02/08 00:09:21;;;;;;;5.40;3.25;;;6.70;65.50;8.90;100235.00;;;;5074277;28;20194;-73
2024/02/08 00:11:48;;;;;;;5.72;3.72;;;6.70;65.50;8.90;100228.00;;;;5074159;28;20225;-72
2024/02/08 00:14:15;;;;;;;9.60;3.70;;;6.80;65.60;8.80;100234.00;;;;5073258;28;20897;-73
2024/02/08 00:16:42;;;;;;;8.55;3.90;;;6.70;65.60;8.80;100234.00;;;;5076242;28;20190;-72
2024/02/08 00:19:09;;;;;;;4.93;3.33;;;6.70;65.60;8.80;100239.00;;;;5094313;28;20277;-72
2024/02/08 00:21:37;;;;;;;9.70;3.90;;;6.70;65.60;8.80;100229.00;;;;5073793;28;20648;-72
2024/02/08 00:24:06;;;;;;;9.25;3.72;;;6.70;65.70;8.80;100221.00;;;;5084181;28;20647;-72
2024/02/08 00:26:33;;;;;;;4.97;3.67;;;6.70;65.80;8.90;100222.00;;;;5075041;28;20274;-73
2024/02/08 00:29:01;;;;;;;7.72;3.30;;;6.80;65.90;8.90;100223.00;;;;5074188;28;20286;-73
2024/02/08 00:31:28;;;;;;;8.90;3.72;;;6.70;65.90;8.90;100235.00;;;;5074053;28;20568;-72
2024/02/08 00:33:55;;;;;;;6.63;3.55;;;6.80;65.90;8.90;100238.00;;;;5074440;28;20278;-72
2024/02/08 00:36:22;;;;;;;7.93;3.33;;;6.80;65.90;8.90;100239.00;;;;5073631;28;20564;-73
2024/02/08 00:38:49;;;;;;;7.13;3.40;;;6.80;66.00;8.90;100242.00;;;;5074220;28;20222;-72
2024/02/08 00:41:23;;;;;;;5.82;4.03;;;6.80;66.00;8.90;100243.00;;;;5073914;28;20194;-72
2024/02/08 00:43:51;;;;;;;8.30;4.70;;;6.80;66.00;8.90;100253.00;;;;5083587;28;20763;-72
2024/02/08 00:46:19;;;;;;;8.75;4.25;;;6.80;65.90;8.90;100246.00;;;;5076433;28;20277;-72
2024/02/08 00:48:46;;;;;;;8.57;4.40;;;6.90;66.00;8.90;100243.00;;;;5082506;28;20205;-73
2024/02/08 00:51:14;;;;;;;11.93;4.68;;;6.90;66.00;9.00;100233.00;;;;5090348;28;20214;-72
2024/02/08 00:53:43;;;;;;;7.38;3.45;;;6.90;66.00;9.00;100239.00;;;;5073736;28;20191;-73
2024/02/08 00:56:12;;;;;;;8.25;4.25;;;6.90;66.00;8.90;100236.00;;;;5071704;28;20198;-72
2024/02/08 00:58:40;;;;;;;11.93;4.60;;;6.80;65.80;8.90;100224.00;;;;5073804;28;20195;-73
2024/02/08 01:01:07;;;;;;;8.05;4.07;;;6.90;65.90;8.90;100220.00;;;;5073847;28;20282;-73
2024/02/08 01:03:35;;;;;;;8.95;4.43;;;6.90;65.90;8.90;100214.00;;;;5072944;28;20230;-72
2024/02/08 01:06:02;;;;;;;8.90;4.63;;;6.80;65.80;8.90;100212.00;;;;5073233;28;20306;-72
2024/02/08 01:08:29;;;;;;;6.85;4.15;;;6.80;65.80;8.90;100213.00;;;;5081607;28;20300;-73
2024/02/08 01:10:57;;;;;;;8.50;4.70;;;6.80;65.80;8.90;100205.00;;;;5093554;28;20308;-72
2024/02/08 01:13:26;;;;;;;11.25;4.30;;;6.80;65.80;8.90;100205.00;;;;5084162;28;20218;-74
2024/02/08 01:15:56;;;;;;;7.80;3.65;;;6.80;65.80;8.90;100208.00;;;;5073004;28;20572;-72
2024/02/08 01:18:24;;;;;;;8.55;3.30;;;6.80;65.80;8.90;100212.00;;;;5089855;28;20720;-73
2024/02/08 01:20:52;;;;;;;8.48;3.30;;;6.80;65.90;8.90;100205.00;;;;5083321;28;20264;-73
2024/02/08 01:23:22;;;;;;;6.15;3.13;;;6.80;65.90;8.90;100198.00;;;;5072243;28;20191;-73
2024/02/08 01:25:49;;;;;;;7.68;3.58;;;6.90;66.00;8.90;100193.00;;;;5072855;28;20260;-72
2024/02/08 01:28:16;;;;;;;8.82;3.03;;;6.80;66.00;8.90;100201.00;;;;5086015;28;20290;-72
2024/02/08 01:30:45;;;;;;;6.30;3.00;;;6.80;65.90;8.90;100191.00;;;;5093410;28;20304;-72
2024/02/08 01:33:14;;;;;;;8.30;3.63;;;6.80;65.90;8.90;100195.00;;;;5084904;28;20187;-73
2024/02/08 01:35:41;;;;;;;5.60;3.13;;;6.80;66.00;8.90;100200.00;;;;5072400;28;20293;-74
2024/02/08 01:38:08;;;;;;;7.05;3.75;;;6.90;66.00;8.90;100202.00;;;;5072652;28;20281;-73
2024/02/08 01:40:36;;;;;;;9.32;3.70;;;6.80;66.00;8.90;100205.00;;;;5072453;28;20293;-72
2024/02/08 01:43:06;;;;;;;9.50;4.68;;;6.80;66.00;8.90;100203.00;;;;5073199;28;20695;-72
2024/02/08 01:45:37;;;;;;;9.88;3.60;;;6.80;66.10;8.90;100199.00;;;;5072450;28;20270;-72
2024/02/08 01:48:10;;;;;;;5.85;3.28;;;6.80;66.90;8.90;100208.00;;;;5081851;28;20286;-73
2024/02/08 01:50:42;;;;;;;5.50;3.25;;;6.80;66.20;8.90;100207.00;;;;5091315;28;20228;-73
2024/02/08 01:53:15;;;;;;;6.25;3.80;;;6.90;66.30;8.90;100209.00;;;;5073188;28;20270;-72
2024/02/08 01:55:49;;;;;;;9.45;3.25;;;6.80;66.20;9.00;100213.00;;;;5071185;28;20187;-72
2024/02/08 01:58:17;;;;;;;8.05;3.42;;;6.90;66.30;9.00;100204.00;;;;5071559;28;20205;-74
2024/02/08 02:00:49;;;;;;;8.48;3.28;;;6.90;66.90;9.00;100197.00;;;;5071955;28;20199;-72
2024/02/08 02:03:19;;;;;;;7.80;3.97;;;6.90;66.30;9.00;100189.00;;;;5072781;28;20187;-73
2024/02/08 02:05:48;;;;;;;6.78;3.47;;;6.90;66.40;9.00;100182.00;;;;5071923;28;20227;-73
2024/02/08 02:08:18;;;;;;;6.35;3.47;;;6.90;66.40;9.00;100172.00;;;;5071875;28;20277;-73
2024/02/08 02:10:51;;;;;;;4.90;2.78;;;6.90;66.40;9.00;100168.00;;;;5083180;28;20222;-74
2024/02/08 02:13:20;;;;;;;5.20;3.17;;;6.90;66.30;9.10;100177.00;;;;5052697;28;20282;-73
2024/02/08 02:15:49;;;;;;;7.15;3.47;;;7.00;66.40;9.10;100174.00;;;;5066621;28;20198;-72
2024/02/08 02:18:18;;;;;;;7.47;3.28;;;7.00;66.40;9.10;100182.00;;;;5087949;28;20217;-73
2024/02/08 02:20:45;;;;;;;6.38;3.78;;;7.00;66.40;9.10;100189.00;;;;5088685;28;20194;-74
2024/02/08 02:23:18;;;;;;;8.38;3.75;;;7.00;66.40;9.10;100191.00;;;;5071818;28;20215;-72
2024/02/08 02:25:48;;;;;;;6.40;3.35;;;7.00;66.40;9.10;100186.00;;;;5070800;28;20197;-74
2024/02/08 02:28:17;;;;;;;7.88;3.63;;;7.00;66.40;9.10;100179.00;;;;5054802;28;20196;-74
2024/02/08 02:30:45;;;;;;;6.28;3.72;;;7.10;66.50;9.20;100174.00;;;;5052449;28;20264;-72
2024/02/08 02:33:14;;;;;;;9.90;3.78;;;7.10;66.60;9.20;100171.00;;;;5058399;28;20195;-72
2024/02/08 02:35:48;;;;;;;7.20;3.72;;;7.10;66.60;9.20;100171.00;;;;5070861;28;20245;-72
2024/02/08 02:38:17;;;;;;;7.25;3.78;;;7.10;66.50;9.20;100172.00;;;;5071916;28;20210;-73
2024/02/08 02:40:46;;;;;;;7.80;4.07;;;7.10;66.50;9.20;100174.00;;;;5071552;28;20712;-72
2024/02/08 02:43:13;;;;;;;8.10;4.30;;;7.20;66.60;9.20;100179.00;;;;5071635;28;20203;-72
2024/02/08 02:45:41;;;;;;;8.70;4.10;;;7.20;66.60;9.30;100178.00;;;;5071073;28;20638;-73
2024/02/08 02:48:09;;;;;;;9.23;3.47;;;7.20;66.60;9.30;100166.00;;;;5077083;28;20186;-72
2024/02/08 02:50:40;;;;;;;6.60;3.30;;;7.20;66.40;9.30;100165.00;;;;5072050;28;20278;-72
2024/02/08 02:53:08;;;;;;;7.07;3.78;;;7.20;66.40;9.30;100159.00;;;;5071290;28;20275;-73
2024/02/08 02:55:37;;;;;;;6.00;3.40;;;7.20;66.40;9.30;100158.00;;;;5073295;28;20362;-72
2024/02/08 02:58:04;;;;;;;9.30;3.50;;;7.20;66.40;9.30;100160.00;;;;5066110;28;20240;-72
2024/02/08 03:00:34;;;;;;;8.13;3.63;;;7.20;66.50;9.30;100156.00;;;;5077907;28;20289;-72
2024/02/08 03:03:07;;;;;;;9.48;3.15;;;7.30;66.50;9.30;100160.00;;;;5075394;28;20194;-72
2024/02/08 03:05:35;;;;;;;6.47;2.65;;;7.30;66.60;9.30;100154.00;;;;5075494;28;20675;-71
2024/02/08 03:08:05;;;;;;;4.18;2.17;;;7.30;66.60;9.40;100154.00;;;;5074990;28;20194;-72
2024/02/08 03:10:33;;;;;;;4.80;2.80;;;7.30;66.50;9.30;100159.00;;;;5089580;28;20547;-72
2024/02/08 03:13:02;;;;;;;8.57;3.80;;;7.30;66.50;9.30;100147.00;;;;5071613;28;20215;-71
2024/02/08 03:15:30;;;;;;;6.63;3.45;;;7.30;66.50;9.40;100141.00;;;;5062713;28;20293;-72
2024/02/08 03:17:57;;;;;;;6.28;2.63;;;7.30;66.50;9.40;100145.00;;;;5084126;28;20274;-72
2024/02/08 03:20:29;;;;;;;8.27;2.70;;;7.40;66.60;9.40;100138.00;;;;5075053;28;20191;-72
2024/02/08 03:22:57;;;;;;;5.03;3.03;;;7.30;66.60;9.40;100147.00;;;;5074495;28;20226;-73
2024/02/08 03:25:25;;;;;;;4.88;2.67;;;7.40;66.60;9.50;100138.00;;;;5074587;28;20187;-72
2024/02/08 03:27:53;;;;;;;5.28;2.88;;;7.40;66.50;9.50;100135.00;;;;5075512;28;20191;-72
2024/02/08 03:30:23;;;;;;;4.75;3.10;;;7.40;66.50;9.40;100128.00;;;;5075472;28;20286;-76
2024/02/08 03:32:51;;;;;;;8.05;2.80;;;7.40;66.50;9.50;100119.00;;;;5055739;28;20779;-72
2024/02/08 03:35:25;;;;;;;6.88;3.85;;;7.40;66.50;9.50;100120.00;;;;5065515;28;20277;-72
2024/02/08 03:37:54;;;;;;;6.85;2.92;;;7.40;66.60;9.50;100119.00;;;;5075064;28;20199;-73
2024/02/08 03:40:22;;;;;;;5.75;3.20;;;7.40;66.60;9.50;100116.00;;;;5074549;28;20286;-76
2024/02/08 03:42:50;;;;;;;6.72;3.22;;;7.40;66.60;9.50;100113.00;;;;5075293;28;20627;-72
2024/02/08 03:45:23;;;;;;;13.60;3.35;;;7.50;66.60;9.50;100120.00;;;;5074842;28;20290;-73
2024/02/08 03:47:51;;;;;;;5.78;3.25;;;7.50;66.60;9.50;100120.00;;;;5075028;28;20201;-72
2024/02/08 03:50:18;;;;;;;10.40;3.65;;;7.50;66.60;9.50;100118.00;;;;5075131;28;20273;-73
2024/02/08 03:52:46;;;;;;;5.97;2.72;;;7.50;66.60;9.50;100113.00;;;;5074179;28;20306;-73
2024/02/08 03:55:16;;;;;;;7.43;3.10;;;7.50;66.60;9.50;100113.00;;;;5073976;28;20274;-72
2024/02/08 03:57:48;;;;;;;5.88;3.30;;;7.50;66.60;9.60;100117.00;;;;5074954;28;20191;-72
2024/02/08 04:00:27;;;;;;;9.27;3.15;;;7.50;66.60;9.60;100110.00;;;;5072535;28;20199;-71
2024/02/08 04:02:57;;;;;;;5.00;2.75;;;7.50;66.60;9.60;100115.00;;;;5054703;28;20235;-72
2024/02/08 04:05:36;;;;;;;9.50;3.22;;;7.50;67.20;9.60;100113.00;;;;5063739;28;20218;-72
2024/02/08 04:08:22;;;;;;;5.18;2.63;;;7.60;66.60;9.60;100120.00;;;;5071177;28;20186;-73
2024/02/08 04:54:59;;;;;;;7.85;3.60;;;7.60;66.40;9.60;100058.00;;;;5088725;28;20674;-72
2024/02/08 04:57:26;;;;;;;5.07;3.03;;;7.60;66.40;9.60;100059.00;;;;5074411;28;20207;-72
2024/02/08 04:59:53;;;;;;;7.05;3.10;;;7.60;66.40;9.60;100062.00;;;;5074158;28;20278;-71
2024/02/08 05:02:20;;;;;;;12.13;3.58;;;7.50;66.30;9.50;100054.00;;;;5073389;28;20278;-71
2024/02/08 05:04:48;;;;;;;8.10;4.30;;;7.60;66.40;9.60;100070.00;;;;5072978;28;20230;-75
2024/02/08 05:07:17;;;;;;;6.68;3.97;;;7.50;66.40;9.60;100069.00;;;;5058332;28;20189;-73
2024/02/08 05:09:44;;;;;;;7.90;4.13;;;7.50;66.50;9.60;100068.00;;;;5073272;28;20226;-73
2024/02/08 05:12:12;;;;;;;7.50;4.38;;;7.60;66.60;9.60;100078.00;;;;5071567;28;20225;-72
2024/02/08 05:14:39;;;;;;;7.72;3.90;;;7.50;66.50;9.60;100086.00;;;;5072858;28;20241;-73
2024/02/08 05:17:08;;;;;;;7.40;3.72;;;7.50;66.60;9.60;100076.00;;;;5078997;28;20213;-72
2024/02/08 05:19:35;;;;;;;11.68;4.22;;;7.60;66.60;9.60;100082.00;;;;5076431;28;20191;-71
2024/02/08 05:22:02;;;;;;;6.57;3.67;;;7.60;66.60;9.60;100070.00;;;;5057817;28;20193;-72
2024/02/08 05:24:31;;;;;;;9.38;3.90;;;7.60;66.60;9.60;100069.00;;;;5072534;28;20639;-73
2024/02/08 05:26:59;;;;;;;9.77;3.95;;;7.60;66.70;9.60;100073.00;;;;5053493;28;20287;-72
2024/02/08 05:29:26;;;;;;;8.52;4.07;;;7.60;66.70;9.60;100066.00;;;;5053356;28;20222;-73
2024/02/08 05:31:53;;;;;;;6.68;3.65;;;7.60;66.70;9.60;100069.00;;;;5071254;28;20592;-72
2024/02/08 05:34:21;;;;;;;9.40;3.95;;;7.60;66.70;9.60;100070.00;;;;5093000;28;20210;-71
2024/02/08 05:36:49;;;;;;;9.55;4.53;;;7.60;66.70;9.60;100060.00;;;;5072917;28;20282;-73
2024/02/08 05:39:23;;;;;;;9.65;4.13;;;7.60;66.70;9.70;100064.00;;;;5073197;28;20229;-72
2024/02/08 05:41:53;;;;;;;9.88;4.30;;;7.60;66.70;9.70;100060.00;;;;5070043;28;20187;-72
2024/02/08 05:44:21;;;;;;;9.48;3.75;;;7.60;66.70;9.70;100056.00;;;;5070067;28;20214;-73
2024/02/08 05:46:49;;;;;;;7.13;3.80;;;7.60;66.70;9.70;100064.00;;;;5085683;28;20750;-71
2024/02/08 05:49:25;;;;;;;9.80;4.38;;;7.60;66.70;9.70;100051.00;;;;5086317;28;20244;-71
2024/02/08 05:51:54;;;;;;;11.05;4.45;;;7.60;66.70;9.70;100047.00;;;;5071840;28;20218;-72
2024/02/08 05:54:31;;;;;;;7.40;4.10;;;7.60;66.60;9.70;100044.00;;;;5079650;28;20465;-72
2024/02/08 05:57:02;;;;;;;8.93;4.32;;;7.60;66.70;9.70;100045.00;;;;5086795;28;20555;-71
2024/02/08 05:59:29;;;;;;;7.60;3.53;;;7.70;66.80;9.70;100041.00;;;;5088704;28;20801;-71
2024/02/08 06:01:58;;;;;;;7.40;3.72;;;7.70;66.80;9.70;100042.00;;;;5080309;28;20563;-71
2024/02/08 06:04:34;;;;;;;9.43;4.20;;;7.70;66.80;9.80;100031.00;;;;5077448;28;20209;-72
2024/02/08 06:07:05;;;;;;;9.52;4.47;;;7.70;66.80;9.80;100036.00;;;;5090974;28;20219;-72
2024/02/08 06:09:47;;;;;;;8.30;4.53;;;7.70;66.80;9.80;100031.00;;;;5079711;28;20195;-72
2024/02/08 06:12:24;;;;;;;8.57;4.25;;;7.70;66.80;9.80;100028.00;;;;5072467;28;20288;-72
2024/02/08 06:14:58;;;;;;;8.02;3.85;;;7.70;66.80;9.80;100030.00;;;;5071679;28;20529;-71
2024/02/08 06:17:31;;;;;;;9.68;4.50;;;7.80;66.80;9.80;100042.00;;;;5069190;28;20198;-72
2024/02/08 06:20:00;;;;;;;8.13;4.20;;;7.80;66.80;9.80;100039.00;;;;5072240;28;20441;-72
2024/02/08 06:22:29;;;;;;;8.73;3.70;;;7.80;66.80;9.90;100033.00;;;;5069652;28;20685;-71
2024/02/08 06:25:08;;;;;;;9.70;4.47;;;7.80;66.80;9.90;100034.00;;;;5092094;28;20193;-72
2024/02/08 06:27:37;;;;;;;7.35;3.42;;;7.80;66.80;9.90;100036.00;;;;5075474;28;20722;-71
2024/02/08 06:30:09;;;;;;;4.85;2.97;;;7.90;66.80;9.90;100022.00;;;;5072137;28;20664;-71
2024/02/08 06:32:43;;;;;;;9.25;3.47;;;7.90;66.80;9.90;100021.00;;;;5071915;28;20688;-73
2024/02/08 06:35:19;;;;;;;5.72;3.47;;;7.90;66.80;9.90;100014.00;;;;5072096;28;20194;-72
2024/02/08 06:37:56;;;;;;;7.10;3.42;;;7.90;66.70;10.00;100008.00;;;;5072331;28;20229;-71
2024/02/08 06:40:37;;;;;;;9.57;3.67;;;7.90;66.70;10.00;100002.00;;;;5065991;28;20197;-72
2024/02/08 07:38:48;;;;;;;13.07;2.53;;;8.10;66.00;10.10;99935.00;;;;5025467;28;20207;-75
2024/02/08 07:41:12;;;;;;;7.13;2.58;;;8.10;66.10;10.10;99938.00;;;;5048038;28;20191;-76
2024/02/08 07:43:43;;;;;;;6.65;2.25;;;8.10;66.00;10.10;99938.00;;;;5050985;28;20210;-75
2024/02/08 07:46:16;;;;;;;10.48;2.75;;;8.10;66.00;10.10;99938.00;;;;5055291;28;20195;-75
2024/02/08 07:48:44;;;;;;;6.13;2.00;;;8.10;65.90;10.10;99943.00;;;;5052773;28;20239;-74
2024/02/08 07:51:15;;;;;;;8.10;2.50;;;8.20;66.00;10.10;99935.00;;;;5048814;28;20202;-74
2024/02/08 07:53:51;;;;;;;6.28;2.28;;;8.10;65.90;10.10;99935.00;;;;5048862;28;20274;-73
2024/02/08 07:56:37;;;;;;;5.88;2.20;;;8.20;65.80;10.10;99935.00;;;;5061751;28;20215;-78
2024/02/08 07:59:04;;;;;;;5.28;2.53;;;8.20;65.90;10.20;99938.00;;;;5043849;28;20191;-74
2024/02/08 08:01:38;;;;;;;5.75;2.72;;;8.20;66.00;10.20;99923.00;;;;5034441;28;20706;-74
2024/02/08 08:04:08;;;;;;;5.32;2.67;;;8.20;66.10;10.20;99927.00;;;;5036662;28;20195;-74
2024/02/08 08:06:46;;;;;;;10.43;3.38;;;8.30;66.10;10.20;99926.00;;;;5050201;28;20195;-75
2024/02/08 08:09:21;;;;;;;10.98;3.20;;;8.30;66.00;10.20;99919.00;;;;5038199;28;20227;-76
2024/02/08 08:11:49;;;;;;;9.90;2.65;;;8.30;65.90;10.30;99920.00;;;;5034864;28;20195;-74
2024/02/08 08:15:12;;;;;;;7.22;2.70;;;8.30;66.00;10.30;99913.00;;;;5039608;28;20281;-75
2024/02/08 08:17:31;;;;;;;10.43;2.55;;;8.30;65.90;10.30;99914.00;;;;5045142;28;20207;-75
2024/02/08 08:20:04;;;;;;;5.80;2.28;;;8.40;65.90;10.30;99913.00;;;;5045514;28;20198;-75
2024/02/08 08:25:29;;;;;;;5.25;2.20;;;8.40;65.90;10.30;99909.00;;;;5025655;28;20197;-75
2024/02/08 08:30:39;;;;;;;4.53;2.30;;;8.40;65.80;10.40;99899.00;;;;5038187;28;20279;-75
2024/02/08 08:33:09;;;;;;;7.57;3.20;;;8.40;65.60;10.40;99896.00;;;;5037228;28;20193;-74
2024/02/08 08:35:47;;;;;;;5.28;2.03;;;8.40;65.60;10.50;99885.00;;;;5036412;28;20196;-77
2024/02/08 08:41:06;;;;;;;4.20;2.50;;;8.50;65.80;10.50;99883.00;;;;5041026;28;20286;-75
2024/02/08 08:43:37;;;;;;;7.38;2.20;;;8.50;65.80;10.50;99873.00;;;;5038031;28;20251;-74
2024/02/08 08:46:10;;;;;;;5.55;2.72;;;8.50;65.80;10.60;99866.00;;;;5039235;28;20590;-75
2024/02/08 08:48:38;;;;;;;5.70;1.80;;;8.60;65.80;10.60;99864.00;;;;5036566;28;20741;-74
2024/02/08 08:51:11;;;;;;;5.75;2.38;;;8.60;65.80;10.60;99853.00;;;;5046509;28;20184;-75
2024/02/08 08:53:43;;;;;;;4.32;2.50;;;8.60;65.80;10.70;99857.00;;;;5033536;28;20208;-75
2024/02/08 08:56:12;;;;;;;5.95;2.20;;;8.70;65.90;10.70;99851.00;;;;5033491;28;20192;-75
2024/02/08 08:58:41;;;;;;;5.90;2.10;;;8.70;65.80;10.70;99849.00;;;;5033449;28;20304;-74
2024/02/08 09:01:18;;;;;;;6.10;2.58;;;8.70;65.80;10.80;99845.00;;;;5033052;28;20697;-75
2024/02/08 09:03:55;;;;;;;6.60;1.85;;;8.80;65.70;10.70;99838.00;;;;5032380;28;20193;-75
2024/02/08 09:06:25;;;;;;;11.32;2.85;;;8.80;65.60;10.80;99831.00;;;;5033351;28;20200;-74
2024/02/08 09:08:55;;;;;;;6.47;2.72;;;8.80;65.60;10.80;99830.00;;;;5033202;28;20219;-75
2024/02/08 09:11:25;;;;;;;6.80;2.42;;;8.80;65.60;10.80;99830.00;;;;5036664;28;20195;-75
2024/02/08 09:13:53;;;;;;;9.20;2.30;;;8.90;65.50;10.80;99828.00;;;;5045465;28;20195;-75
2024/02/08 09:16:36;;;;;;;8.05;2.38;;;8.90;65.50;10.80;99827.00;;;;5038275;28;20223;-75
2024/02/08 09:19:06;;;;;;;11.35;2.55;;;8.90;65.40;10.80;99818.00;;;;5032938;28;20192;-75
2024/02/08 09:21:36;;;;;;;7.60;2.50;;;8.90;65.30;10.90;99824.00;;;;5033166;28;20200;-75
2024/02/08 09:24:05;;;;;;;6.53;3.47;;;8.90;65.20;10.90;99806.00;;;;5032580;28;20290;-75
2024/02/08 09:26:48;;;;;;;7.05;2.40;;;8.90;65.20;10.90;99807.00;;;;5032175;28;20658;-75
2024/02/08 09:29:23;;;;;;;7.38;2.45;;;9.00;65.30;10.90;99799.00;;;;5031615;28;20220;-75
2024/02/08 09:31:56;;;;;;;6.50;2.85;;;9.00;65.20;10.90;99796.00;;;;5052427;28;20196;-76
2024/02/08 09:34:36;;;;;;;7.55;2.60;;;9.00;65.10;11.00;99795.00;;;;5039126;28;20196;-74
2024/02/08 09:37:06;;;;;;;7.55;2.67;;;9.00;65.20;11.00;99786.00;;;;5032652;28;20196;-74
2024/02/08 09:42:17;;;;;;;5.95;2.30;;;9.10;65.20;11.00;99787.00;;;;5032297;28;20207;-75
2024/02/08 09:44:49;;;;;;;5.82;2.45;;;9.10;65.00;11.00;99781.00;;;;5032224;28;20255;-76
2024/02/08 09:47:25;;;;;;;5.78;2.58;;;9.10;65.00;11.00;99793.00;;;;5032370;28;20224;-74
2024/02/08 09:50:00;;;;;;;6.15;2.50;;;9.10;65.00;11.10;99776.00;;;;5033052;28;20294;-75
2024/02/08 09:52:31;;;;;;;8.45;2.50;;;9.20;65.10;11.10;99776.00;;;;5032532;28;20195;-79
2024/02/08 09:55:08;;;;;;;6.30;2.83;;;9.20;65.10;11.20;99785.00;;;;5032543;28;20207;-74
2024/02/08 09:57:46;;;;;;;9.13;2.75;;;9.20;65.00;11.20;99781.00;;;;5031247;28;20723;-75
2024/02/08 10:03:06;;;;;;;8.02;2.97;;;9.30;65.00;11.30;99764.00;;;;5026020;28;20287;-77
2024/02/08 10:05:57;;;;;;;7.35;2.67;;;9.30;64.90;11.30;99766.00;;;;5032356;28;20195;-77
2024/02/08 10:08:31;;;;;;;10.20;3.30;;;9.40;64.90;11.30;99752.00;;;;5032449;28;20236;-75
2024/02/08 10:11:23;;;;;;;8.07;3.55;;;9.40;64.90;11.30;99740.00;;;;5032265;28;20212;-76
2024/02/08 10:13:56;;;;;;;7.53;2.72;;;9.40;64.80;11.30;99733.00;;;;5037968;28;20192;-78
2024/02/08 10:19:28;;;;;;;8.93;3.50;;;9.50;64.70;11.40;99735.00;;;;5032574;28;20580;-75
2024/02/08 10:21:57;;;;;;;11.10;3.22;;;9.50;64.80;11.40;99728.00;;;;5049300;28;20206;-76
2024/02/08 10:24:44;;;;;;;9.25;3.63;;;9.50;64.70;11.40;99723.00;;;;5045199;28;20680;-75
2024/02/08 10:27:19;;;;;;;10.43;3.72;;;9.50;64.60;11.40;99719.00;;;;5031463;28;20284;-75
2024/02/08 10:29:58;;;;;;;6.47;3.58;;;9.50;64.60;11.40;99704.00;;;;5031656;28;20543;-75
2024/02/08 10:32:27;;;;;;;7.60;3.60;;;9.60;64.80;11.50;99706.00;;;;5031166;28;20200;-75
2024/02/08 10:35:13;;;;;;;8.27;3.88;;;9.60;64.80;11.50;99695.00;;;;5031061;28;20716;-76
2024/02/08 10:37:53;;;;;;;8.02;3.80;;;9.60;64.70;11.50;99698.00;;;;5032317;28;20200;-76
2024/02/08 10:40:32;;;;;;;7.88;3.63;;;9.60;64.60;11.50;99691.00;;;;5032122;28;20600;-77
2024/02/08 10:43:00;;;;;;;7.80;3.88;;;9.60;64.60;11.60;99677.00;;;;5049754;28;20223;-76
2024/02/08 10:45:32;;;;;;;9.63;3.97;;;9.70;64.60;11.50;99676.00;;;;5031727;28;20637;-76
2024/02/08 10:48:03;;;;;;;7.00;4.00;;;9.70;64.50;11.60;99677.00;;;;5031066;28;20277;-76
2024/02/08 10:50:34;;;;;;;8.27;3.60;;;9.70;64.60;11.60;99684.00;;;;5031141;28;20674;-76
2024/02/08 10:53:13;;;;;;;8.82;4.20;;;9.70;64.60;11.60;99674.00;;;;5031388;28;20219;-76
2024/02/08 10:55:52;;;;;;;8.13;3.90;;;9.70;64.70;11.60;99674.00;;;;5037099;28;20195;-75
2024/02/08 10:58:28;;;;;;;6.90;4.20;;;9.70;64.80;11.60;99685.00;;;;5050194;28;20297;-75
2024/02/08 11:01:32;;;;;;;13.30;4.10;;;9.70;65.10;11.60;99681.00;;;;5051124;28;20199;-75
2024/02/08 11:04:07;;;;;;;10.15;3.95;;;9.60;64.70;11.60;99680.00;;;;5050338;28;20203;-76
2024/02/08 11:06:44;;;;;;;7.00;4.22;;;9.70;64.60;11.60;99685.00;;;;5050864;28;20192;-75
2024/02/08 11:09:18;;;;;;;8.15;3.90;;;9.70;64.80;11.70;99680.00;;;;5051334;28;20556;-76
2024/02/08 11:12:00;;;;;;;7.70;4.00;;;9.70;64.80;11.60;99679.00;;;;5088639;22;20231;-76
2024/02/08 11:14:40;;;;;;;7.70;4.22;;;9.80;65.00;11.70;99660.00;;;;5025192;28;20722;-76
2024/02/08 11:17:20;;;;;;;10.40;4.15;;;9.80;65.10;11.70;99653.00;;;;5026322;28;20201;-77
2024/02/08 11:19:56;;;;;;;9.52;4.35;;;9.80;65.20;11.70;99647.00;;;;5030945;28;20200;-77
2024/02/08 11:22:34;;;;;;;7.43;4.05;;;9.80;65.20;11.70;99626.00;;;;5031580;28;20207;-76
2024/02/08 11:25:18;;;;;;;7.47;4.10;;;9.80;65.00;11.70;99641.00;;;;5030289;28;20226;-76
2024/02/08 11:27:48;;;;;;;8.38;4.78;;;9.80;65.00;11.80;99649.00;;;;5027139;28;20193;-75
2024/02/08 11:30:19;;;;;;;8.50;4.28;;;9.80;65.10;11.80;99660.00;;;;5011341;28;20671;-75
2024/02/08 11:33:01;;;;;;;6.57;4.03;;;9.80;65.10;11.70;99647.00;;;;5019923;28;20558;-75
2024/02/08 11:35:31;;;;;;;7.70;4.40;;;9.80;65.10;11.80;99633.00;;;;5034158;28;20207;-78
2024/02/08 11:38:26;;;;;;;10.18;4.32;;;9.90;65.10;11.70;99628.00;;;;5033707;28;20223;-76
2024/02/08 11:40:57;;;;;;;8.02;3.65;;;9.90;65.10;11.90;99643.00;;;;5034897;28;20218;-76
2024/02/08 11:43:25;;;;;;;9.25;4.68;;;9.90;65.10;11.90;99654.00;;;;5035070;28;20227;-75
2024/02/08 11:45:54;;;;;;;10.25;4.80;;;9.90;65.10;11.90;99641.00;;;;5015526;28;20201;-75
2024/02/08 11:48:41;;;;;;;22.17;4.90;;;9.90;65.10;11.90;99637.00;;;;5015164;28;20311;-75
2024/02/08 11:51:12;;;;;;;6.93;4.30;;;9.90;65.20;11.90;99642.00;;;;5009999;28;20272;-75
2024/02/08 11:53:44;;;;;;;9.63;4.28;;;9.90;65.10;11.90;99646.00;;;;5013076;28;20773;-75
2024/02/08 11:56:13;;;;;;;10.27;4.22;;;9.90;64.90;11.90;99647.00;;;;5006272;28;20608;-75
2024/02/08 11:58:44;;;;;;;7.22;3.90;;;10.00;65.00;11.90;99633.00;;;;5013317;28;20197;-76
2024/02/08 12:01:14;;;;;;;7.97;4.00;;;9.90;65.10;11.90;99620.00;;;;5014742;28;20197;-75
2024/02/08 12:03:42;;;;;;;7.00;4.05;;;10.00;65.20;11.90;99613.00;;;;4995122;28;20582;-75
2024/02/08 12:06:22;;;;;;;7.97;3.83;;;10.00;65.10;11.80;99602.00;;;;4999216;28;20205;-75
2024/02/08 12:08:58;;;;;;;9.32;4.18;;;9.90;65.00;11.90;99602.00;;;;5018929;28;20225;-75
2024/02/08 12:11:29;;;;;;;6.13;3.85;;;10.00;65.10;11.90;99585.00;;;;4994771;28;20233;-75
2024/02/08 12:13:57;;;;;;;7.93;4.15;;;9.90;65.10;11.90;99578.00;;;;5010071;28;20544;-76
2024/02/08 12:16:26;;;;;;;13.02;5.05;;;9.90;65.10;11.90;99570.00;;;;5013585;28;20204;-75
2024/02/08 12:18:59;;;;;;;9.20;4.97;;;9.90;65.10;11.90;99573.00;;;;5014261;28;20211;-75
2024/02/08 12:21:26;;;;;;;9.90;4.63;;;9.90;65.00;11.90;99557.00;;;;5013955;28;20221;-75
2024/02/08 12:23:54;;;;;;;9.85;4.57;;;9.90;65.00;11.90;99548.00;;;;5013916;28;20292;-78
2024/02/08 12:26:26;;;;;;;10.88;5.05;;;9.90;65.40;11.80;99543.00;;;;5016453;28;20204;-75
2024/02/08 12:28:57;;;;;;;9.60;4.80;;;9.90;65.10;11.80;99546.00;;;;5014597;28;20703;-75
2024/02/08 12:31:29;;;;;;;8.85;5.15;;;9.90;65.20;11.80;99534.00;;;;5008162;28;20197;-75
2024/02/08 12:34:03;;;;;;;9.02;4.55;;;9.90;65.10;11.70;99536.00;;;;5012389;28;20197;-76
2024/02/08 12:36:35;;;;;;;11.45;4.53;;;9.80;64.80;11.70;99523.00;;;;5015778;28;20215;-75
2024/02/08 12:39:17;;;;;;;15.40;4.80;;;9.80;64.80;11.70;99509.00;;;;5011585;28;20658;-76
2024/02/08 12:41:45;;;;;;;14.20;5.40;;;9.80;64.70;11.60;99503.00;;;;5022291;28;20284;-75
2024/02/08 12:44:14;;;;;;;9.90;4.75;;;9.80;64.70;11.60;99486.00;;;;5014160;28;20299;-75
2024/02/08 12:46:46;;;;;;;12.07;5.07;;;9.70;64.70;11.60;99484.00;;;;5000478;28;20284;-76
2024/02/08 12:49:17;;;;;;;8.40;4.57;;;9.70;64.80;11.50;99479.00;;;;4997810;28;20271;-77
2024/02/08 12:51:46;;;;;;;10.02;4.88;;;9.60;64.70;11.50;99478.00;;;;5013076;28;20226;-77
2024/02/08 12:54:15;;;;;;;9.27;4.45;;;9.60;64.80;11.50;99480.00;;;;5013094;28;20193;-75
2024/02/08 12:56:45;;;;;;;12.63;4.88;;;9.50;64.90;11.40;99479.00;;;;5020484;28;20304;-75
2024/02/08 12:59:13;;;;;;;8.23;4.35;;;9.50;65.10;11.40;99469.00;;;;4999085;28;20242;-75
2024/02/08 13:01:44;;;;;;;8.48;4.50;;;9.50;65.10;11.40;99471.00;;;;5019443;28;20216;-75
2024/02/08 13:04:17;;;;;;;12.45;5.57;;;9.50;65.10;11.30;99467.00;;;;5016598;28;20219;-76
2024/02/08 13:06:45;;;;;;;12.77;5.00;;;9.40;65.20;11.40;99464.00;;;;4999421;28;20201;-75
2024/02/08 13:09:25;;;;;;;10.98;5.18;;;9.40;65.30;11.40;99453.00;;;;5012314;28;20294;-77
2024/02/08 13:12:14;;;;;;;8.45;4.03;;;9.40;65.40;11.30;99467.00;;;;5012173;28;20226;-76
2024/02/08 13:14:48;;;;;;;8.82;4.22;;;9.40;65.40;11.30;99438.00;;;;5002478;28;20211;-74
2024/02/08 13:21:34;;;;;;;7.65;4.03;;;9.40;65.40;11.10;99394.00;;;;5000360;28;20609;-76